Terminal Aerodrome Forecast
Issued by NWS Wilmington, OH

Current Version | Previous Version | Graphics & Text | Print | Product List | Glossary On
Versions: 1 2 3 4 5 6 7 8 9 10 11 12 13 14 15 16
821
FTUS41 KILN 061740
TAFDAY
TAF
KDAY 061740Z 0618/0718 34004KT 1 1/2SM -RA BR OVC004
     FM062000 29008KT 3SM -DZ OVC005
     FM062300 29014G22KT P6SM OVC010
     FM070600 26010KT P6SM SCT200
     FM071200 25008KT P6SM BKN150=

USA.gov is the U.S. government's official web portal to all federal, state and local government web resources and services.